sensor_id;sensor_type;location;lat;lon;timestamp;temperature;humidity
74420;DHT22;62855;50.718;-2.460;2023-01-08T08:06:01;45.68;80.00
74420;DHT22;62855;50.718;-2.460;2023-01-08T08:09:00;45.86;80.00
74420;DHT22;62855;50.718;-2.460;2023-01-08T08:12:01;46.04;80.00
74420;DHT22;62855;50.718;-2.460;2023-01-08T08:15:01;46.04;80.00
74420;DHT22;62855;50.718;-2.460;2023-01-08T08:18:01;46.04;79.00
74420;DHT22;62855;50.718;-2.460;2023-01-08T08:21:01;46.22;78.00
74420;DHT22;62855;50.718;-2.460;2023-01-08T08:24:00;46.22;78.00
74420;DHT22;62855;50.718;-2.460;2023-01-08T08:27:00;46.22;77.00
74420;DHT22;62855;50.718;-2.460;2023-01-08T08:30:01;46.04;77.00
74420;DHT22;62855;50.718;-2.460;2023-01-08T08:33:03;46.04;77.00
74420;DHT22;62855;50.718;-2.460;2023-01-08T08:36:00;46.22;77.00
74420;DHT22;62855;50.718;-2.460;2023-01-08T08:39:01;46.22;77.00
74420;DHT22;62855;50.718;-2.460;2023-01-08T08:42:00;46.40;77.00
74420;DHT22;62855;50.718;-2.460;2023-01-08T08:45:01;46.58;77.00
74420;DHT22;62855;50.718;-2.460;2023-01-08T08:48:01;46.76;77.00
74420;DHT22;62855;50.718;-2.460;2023-01-08T08:51:01;46.94;77.00
74420;DHT22;62855;50.718;-2.460;2023-01-08T08:54:00;46.94;75.00
74420;DHT22;62855;50.718;-2.460;2023-01-08T08:57:00;46.94;74.00
74420;DHT22;62855;50.718;-2.460;2023-01-08T09:01:01;47.12;73.00
74420;DHT22;62855;50.718;-2.460;2023-01-08T09:04:01;47.12;73.00
74420;DHT22;62855;50.718;-2.460;2023-01-08T09:07:00;46.76;73.00
74420;DHT22;62855;50.718;-2.460;2023-01-08T09:10:01;46.22;72.00
74420;DHT22;62855;50.718;-2.460;2023-01-08T09:13:00;45.86;72.00
74420;DHT22;62855;50.718;-2.460;2023-01-08T09:16:00;45.68;73.00
74420;DHT22;62855;50.718;-2.460;2023-01-08T09:19:01;45.50;74.00
74420;DHT22;62855;50.718;-2.460;2023-01-08T09:22:01;45.14;75.00
74420;DHT22;62855;50.718;-2.460;2023-01-08T09:25:01;44.78;75.00
74420;DHT22;62855;50.718;-2.460;2023-01-08T09:28:02;44.60;76.00
74420;DHT22;62855;50.718;-2.460;2023-01-08T09:31:01;44.42;76.00
74420;DHT22;62855;50.718;-2.460;2023-01-08T09:34:00;44.24;82.00
74420;DHT22;62855;50.718;-2.460;2023-01-08T09:37:00;44.24;82.00
74420;DHT22;62855;50.718;-2.460;2023-01-08T09:40:00;44.06;82.00
74420;DHT22;62855;50.718;-2.460;2023-01-08T10:01:01;44.96;79.00
74420;DHT22;62855;50.718;-2.460;2023-01-08T10:01:02;44.96;79.00
74420;DHT22;62855;50.718;-2.460;2023-01-08T10:04:03;45.32;79.00
74420;DHT22;62855;50.718;-2.460;2023-01-08T10:04:03;45.32;79.00
74420;DHT22;62855;50.718;-2.460;2023-01-08T10:07:05;45.50;79.00
74420;DHT22;62855;50.718;-2.460;2023-01-08T10:07:05;45.50;79.00
74420;DHT22;62855;50.718;-2.460;2023-01-08T10:10:00;45.86;80.00
74420;DHT22;62855;50.718;-2.460;2023-01-08T10:10:01;45.86;80.00
74420;DHT22;62855;50.718;-2.460;2023-01-08T10:13:00;46.04;80.00
74420;DHT22;62855;50.718;-2.460;2023-01-08T10:14:00;46.22;80.00
74420;DHT22;62855;50.718;-2.460;2023-01-08T10:16:02;46.22;80.00
74420;DHT22;62855;50.718;-2.460;2023-01-08T10:17:02;46.40;80.00
74420;DHT22;62855;50.718;-2.460;2023-01-08T10:19:03;46.40;80.00
74420;DHT22;62855;50.718;-2.460;2023-01-08T10:20:01;46.40;80.00
74420;DHT22;62855;50.718;-2.460;2023-01-08T10:22:01;46.58;79.00
74420;DHT22;62855;50.718;-2.460;2023-01-08T10:25:05;46.58;79.00
74420;DHT22;62855;50.718;-2.460;2023-01-08T10:28:02;46.58;79.00
74420;DHT22;62855;50.718;-2.460;2023-01-08T10:31:04;46.76;79.00
74420;DHT22;62855;50.718;-2.460;2023-01-08T10:34:07;46.94;78.00
74420;DHT22;62855;50.718;-2.460;2023-01-08T10:34:08;46.94;78.00
74420;DHT22;62855;50.718;-2.460;2023-01-08T10:37:00;46.94;78.00
74420;DHT22;62855;50.718;-2.460;2023-01-08T10:40:05;46.94;77.00
74420;DHT22;62855;50.718;-2.460;2023-01-08T10:43:05;46.58;76.00
74420;DHT22;62855;50.718;-2.460;2023-01-08T10:46:03;46.58;76.00
74420;DHT22;62855;50.718;-2.460;2023-01-08T10:48:03;46.58;77.00
74420;DHT22;62855;50.718;-2.460;2023-01-08T10:49:02;46.58;77.00
74420;DHT22;62855;50.718;-2.460;2023-01-08T10:51:04;46.58;77.00
74420;DHT22;62855;50.718;-2.460;2023-01-08T10:52:01;46.58;77.00
74420;DHT22;62855;50.718;-2.460;2023-01-08T10:57:00;46.58;78.00
74420;DHT22;62855;50.718;-2.460;2023-01-08T11:02:01;46.58;79.00
74420;DHT22;62855;50.718;-2.460;2023-01-08T11:05:02;46.22;80.00
74420;DHT22;62855;50.718;-2.460;2023-01-08T11:11:01;45.32;79.00
74420;DHT22;62855;50.718;-2.460;2023-01-08T11:14:03;45.14;79.00
74420;DHT22;62855;50.718;-2.460;2023-01-08T11:17:07;45.14;79.00
74420;DHT22;62855;50.718;-2.460;2023-01-08T11:20:18;44.42;83.00
74420;DHT22;62855;50.718;-2.460;2023-01-08T11:23:05;43.88;83.00
74420;DHT22;62855;50.718;-2.460;2023-01-08T11:26:05;44.06;83.00
74420;DHT22;62855;50.718;-2.460;2023-01-08T11:29:06;44.24;84.00
74420;DHT22;62855;50.718;-2.460;2023-01-08T11:32:10;44.42;80.00
74420;DHT22;62855;50.718;-2.460;2023-01-08T11:35:03;44.60;80.00
74420;DHT22;62855;50.718;-2.460;2023-01-08T11:38:01;44.96;80.00
74420;DHT22;62855;50.718;-2.460;2023-01-08T11:41:10;44.96;80.00
74420;DHT22;62855;50.718;-2.460;2023-01-08T11:44:12;44.96;80.00
74420;DHT22;62855;50.718;-2.460;2023-01-08T11:47:07;44.96;80.00
74420;DHT22;62855;50.718;-2.460;2023-01-08T11:50:11;44.96;80.00
74420;DHT22;62855;50.718;-2.460;2023-01-08T11:53:12;44.96;80.00
74420;DHT22;62855;50.718;-2.460;2023-01-08T11:59:10;45.32;80.00
74420;DHT22;62855;50.718;-2.460;2023-01-08T12:02:04;45.50;80.00
74420;DHT22;62855;50.718;-2.460;2023-01-08T12:05:22;45.50;80.00
74420;DHT22;62855;50.718;-2.460;2023-01-08T12:08:03;45.50;80.00
74420;DHT22;62855;50.718;-2.460;2023-01-08T12:11:11;45.50;80.00
74420;DHT22;62855;50.718;-2.460;2023-01-08T12:14:12;45.32;80.00
74420;DHT22;62855;50.718;-2.460;2023-01-08T12:17:10;45.32;80.00
74420;DHT22;62855;50.718;-2.460;2023-01-08T12:20:11;45.32;80.00
74420;DHT22;62855;50.718;-2.460;2023-01-08T12:23:10;45.32;79.00
74420;DHT22;62855;50.718;-2.460;2023-01-08T12:26:07;45.32;79.00
74420;DHT22;62855;50.718;-2.460;2023-01-08T12:29:13;45.32;79.00
74420;DHT22;62855;50.718;-2.460;2023-01-08T12:32:13;45.32;79.00
74420;DHT22;62855;50.718;-2.460;2023-01-08T12:35:06;45.32;79.00
74420;DHT22;62855;50.718;-2.460;2023-01-08T12:38:04;45.32;79.00
74420;DHT22;62855;50.718;-2.460;2023-01-08T12:41:05;45.50;79.00
74420;DHT22;62855;50.718;-2.460;2023-01-08T12:44:02;45.50;78.00
74420;DHT22;62855;50.718;-2.460;2023-01-08T12:47:01;45.50;78.00
74420;DHT22;62855;50.718;-2.460;2023-01-08T12:50:16;45.50;78.00
74420;DHT22;62855;50.718;-2.460;2023-01-08T12:53:05;45.68;77.00
74420;DHT22;62855;50.718;-2.460;2023-01-08T12:56:06;45.68;77.00
74420;DHT22;62855;50.718;-2.460;2023-01-08T12:59:10;45.68;77.00
74420;DHT22;62855;50.718;-2.460;2023-01-08T13:02:05;45.68;77.00
74420;DHT22;62855;50.718;-2.460;2023-01-08T13:05:10;45.68;76.00
74420;DHT22;62855;50.718;-2.460;2023-01-08T13:08:03;45.68;76.00
74420;DHT22;62855;50.718;-2.460;2023-01-08T13:11:01;45.68;76.00
74420;DHT22;62855;50.718;-2.460;2023-01-08T13:14:02;45.68;77.00
74420;DHT22;62855;50.718;-2.460;2023-01-08T13:17:03;45.68;77.00
74420;DHT22;62855;50.718;-2.460;2023-01-08T13:20:03;45.68;77.00
74420;DHT22;62855;50.718;-2.460;2023-01-08T13:23:03;45.68;77.00
74420;DHT22;62855;50.718;-2.460;2023-01-08T13:26:03;45.68;77.00
74420;DHT22;62855;50.718;-2.460;2023-01-08T13:32:00;45.68;77.00
74420;DHT22;62855;50.718;-2.460;2023-01-08T13:35:15;45.68;77.00
74420;DHT22;62855;50.718;-2.460;2023-01-08T13:38:12;45.86;77.00
74420;DHT22;62855;50.718;-2.460;2023-01-08T13:41:01;45.86;76.00
74420;DHT22;62855;50.718;-2.460;2023-01-08T13:44:03;45.86;76.00
74420;DHT22;62855;50.718;-2.460;2023-01-08T13:47:03;45.86;76.00
74420;DHT22;62855;50.718;-2.460;2023-01-08T13:50:04;45.68;76.00
74420;DHT22;62855;50.718;-2.460;2023-01-08T13:53:01;45.32;75.00
74420;DHT22;62855;50.718;-2.460;2023-01-08T13:56:02;45.14;75.00
74420;DHT22;62855;50.718;-2.460;2023-01-08T13:59:01;44.96;74.00
74420;DHT22;62855;50.718;-2.460;2023-01-08T14:02:01;44.96;74.00
74420;DHT22;62855;50.718;-2.460;2023-01-08T14:05:10;44.96;74.00
74420;DHT22;62855;50.718;-2.460;2023-01-08T14:08:01;44.96;74.00
74420;DHT22;62855;50.718;-2.460;2023-01-08T14:11:02;44.96;75.00
74420;DHT22;62855;50.718;-2.460;2023-01-08T14:14:01;44.96;75.00
74420;DHT22;62855;50.718;-2.460;2023-01-08T14:17:01;44.96;76.00
74420;DHT22;62855;50.718;-2.460;2023-01-08T14:20:00;44.96;76.00
74420;DHT22;62855;50.718;-2.460;2023-01-08T14:23:01;44.96;76.00
74420;DHT22;62855;50.718;-2.460;2023-01-08T14:26:03;44.96;77.00
74420;DHT22;62855;50.718;-2.460;2023-01-08T14:29:01;44.96;77.00
74420;DHT22;62855;50.718;-2.460;2023-01-08T14:32:00;44.96;77.00
74420;DHT22;62855;50.718;-2.460;2023-01-08T14:35:01;44.96;77.00
74420;DHT22;62855;50.718;-2.460;2023-01-08T14:38:01;44.96;77.00
74420;DHT22;62855;50.718;-2.460;2023-01-08T14:41:02;44.96;76.00
74420;DHT22;62855;50.718;-2.460;2023-01-08T14:44:01;44.96;76.00
74420;DHT22;62855;50.718;-2.460;2023-01-08T14:47:01;44.78;76.00
74420;DHT22;62855;50.718;-2.460;2023-01-08T14:50:00;44.78;76.00
74420;DHT22;62855;50.718;-2.460;2023-01-08T14:53:04;44.60;75.00
74420;DHT22;62855;50.718;-2.460;2023-01-08T14:56:01;44.60;75.00
74420;DHT22;62855;50.718;-2.460;2023-01-08T14:59:05;44.42;75.00
74420;DHT22;62855;50.718;-2.460;2023-01-08T15:02:01;44.42;75.00
74420;DHT22;62855;50.718;-2.460;2023-01-08T15:05:02;44.24;81.00
74420;DHT22;62855;50.718;-2.460;2023-01-08T15:08:03;44.24;81.00
74420;DHT22;62855;50.718;-2.460;2023-01-08T15:11:02;44.24;81.00
74420;DHT22;62855;50.718;-2.460;2023-01-08T15:17:07;44.42;74.00
74420;DHT22;62855;50.718;-2.460;2023-01-08T15:20:00;44.60;74.00
74420;DHT22;62855;50.718;-2.460;2023-01-08T15:23:00;44.60;73.00
74420;DHT22;62855;50.718;-2.460;2023-01-08T15:26:00;44.60;73.00
74420;DHT22;62855;50.718;-2.460;2023-01-08T15:29:04;44.60;73.00
74420;DHT22;62855;50.718;-2.460;2023-01-08T15:32:08;44.60;72.00
74420;DHT22;62855;50.718;-2.460;2023-01-08T15:35:01;44.42;72.00
74420;DHT22;62855;50.718;-2.460;2023-01-08T15:38:00;44.42;72.00
74420;DHT22;62855;50.718;-2.460;2023-01-08T15:41:01;44.42;72.00
74420;DHT22;62855;50.718;-2.460;2023-01-08T15:44:01;44.42;72.00
74420;DHT22;62855;50.718;-2.460;2023-01-08T15:47:00;44.42;72.00
74420;DHT22;62855;50.718;-2.460;2023-01-08T15:50:00;44.42;71.00
74420;DHT22;62855;50.718;-2.460;2023-01-08T15:53:00;44.42;71.00
74420;DHT22;62855;50.718;-2.460;2023-01-08T15:56:00;44.42;71.00
74420;DHT22;62855;50.718;-2.460;2023-01-08T15:59:00;44.42;71.00
74420;DHT22;62855;50.718;-2.460;2023-01-08T16:06:04;44.60;71.00
74420;DHT22;62855;50.718;-2.460;2023-01-08T16:09:01;44.60;71.00
74420;DHT22;62855;50.718;-2.460;2023-01-08T16:12:00;44.60;70.00
74420;DHT22;62855;50.718;-2.460;2023-01-08T16:15:01;44.42;70.00
74420;DHT22;62855;50.718;-2.460;2023-01-08T16:18:01;44.42;70.00
74420;DHT22;62855;50.718;-2.460;2023-01-08T16:21:00;44.42;70.00
74420;DHT22;62855;50.718;-2.460;2023-01-08T16:24:01;44.42;70.00
74420;DHT22;62855;50.718;-2.460;2023-01-08T16:27:01;44.42;69.00
74420;DHT22;62855;50.718;-2.460;2023-01-08T16:30:01;44.24;73.00
74420;DHT22;62855;50.718;-2.460;2023-01-08T16:33:00;44.24;73.00
74420;DHT22;62855;50.718;-2.460;2023-01-08T16:36:02;44.24;73.00
74420;DHT22;62855;50.718;-2.460;2023-01-08T16:39:00;44.24;73.00
74420;DHT22;62855;50.718;-2.460;2023-01-08T16:42:01;44.24;73.00
74420;DHT22;62855;50.718;-2.460;2023-01-08T16:45:00;44.24;73.00
74420;DHT22;62855;50.718;-2.460;2023-01-08T16:48:00;44.06;73.00
74420;DHT22;62855;50.718;-2.460;2023-01-08T16:51:04;44.06;73.00
74420;DHT22;62855;50.718;-2.460;2023-01-08T16:54:00;43.88;74.00
74420;DHT22;62855;50.718;-2.460;2023-01-08T16:57:00;43.88;74.00
74420;DHT22;62855;50.718;-2.460;2023-01-08T17:00:00;43.88;74.00
74420;DHT22;62855;50.718;-2.460;2023-01-08T17:03:00;43.88;74.00
74420;DHT22;62855;50.718;-2.460;2023-01-08T17:06:02;43.88;75.00
74420;DHT22;62855;50.718;-2.460;2023-01-08T17:09:00;43.88;74.00
74420;DHT22;62855;50.718;-2.460;2023-01-08T17:12:00;43.88;74.00
74420;DHT22;62855;50.718;-2.460;2023-01-08T17:15:01;43.88;74.00
74420;DHT22;62855;50.718;-2.460;2023-01-08T17:18:01;43.88;74.00
74420;DHT22;62855;50.718;-2.460;2023-01-08T17:21:01;43.88;74.00
74420;DHT22;62855;50.718;-2.460;2023-01-08T17:24:00;43.88;75.00
74420;DHT22;62855;50.718;-2.460;2023-01-08T17:27:00;44.06;75.00
74420;DHT22;62855;50.718;-2.460;2023-01-08T17:30:01;44.24;75.00
74420;DHT22;62855;50.718;-2.460;2023-01-08T17:33:01;44.24;75.00
74420;DHT22;62855;50.718;-2.460;2023-01-08T17:36:08;44.42;70.00
74420;DHT22;62855;50.718;-2.460;2023-01-08T17:39:00;44.60;70.00
74420;DHT22;62855;50.718;-2.460;2023-01-08T17:42:00;44.60;70.00
74420;DHT22;62855;50.718;-2.460;2023-01-08T17:45:01;44.60;70.00
74420;DHT22;62855;50.718;-2.460;2023-01-08T17:48:00;44.42;70.00
74420;DHT22;62855;50.718;-2.460;2023-01-08T17:51:04;44.42;70.00
74420;DHT22;62855;50.718;-2.460;2023-01-08T17:54:00;44.42;71.00
74420;DHT22;62855;50.718;-2.460;2023-01-08T17:57:00;44.24;77.00
74420;DHT22;62855;50.718;-2.460;2023-01-08T18:00:01;44.24;77.00
74420;DHT22;62855;50.718;-2.460;2023-01-08T18:03:00;44.24;78.00
74420;DHT22;62855;50.718;-2.460;2023-01-08T18:06:04;44.24;78.00
74420;DHT22;62855;50.718;-2.460;2023-01-08T18:09:01;44.42;72.00
74420;DHT22;62855;50.718;-2.460;2023-01-08T18:13:00;44.60;72.00
74420;DHT22;62855;50.718;-2.460;2023-01-08T18:16:00;44.60;72.00
74420;DHT22;62855;50.718;-2.460;2023-01-08T18:19:01;44.96;72.00
74420;DHT22;62855;50.718;-2.460;2023-01-08T18:22:00;45.14;72.00
74420;DHT22;62855;50.718;-2.460;2023-01-08T18:25:01;45.32;72.00
74420;DHT22;62855;50.718;-2.460;2023-01-08T18:28:00;45.50;71.00
74420;DHT22;62855;50.718;-2.460;2023-01-08T18:31:04;45.50;70.00
74420;DHT22;62855;50.718;-2.460;2023-01-08T18:34:01;45.68;70.00
74420;DHT22;62855;50.718;-2.460;2023-01-08T18:37:00;45.68;70.00
74420;DHT22;62855;50.718;-2.460;2023-01-08T18:40:01;45.50;71.00
74420;DHT22;62855;50.718;-2.460;2023-01-08T18:43:00;45.50;71.00
74420;DHT22;62855;50.718;-2.460;2023-01-08T18:46:02;45.50;71.00
74420;DHT22;62855;50.718;-2.460;2023-01-08T18:49:01;45.50;72.00
74420;DHT22;62855;50.718;-2.460;2023-01-08T18:53:00;45.50;72.00
74420;DHT22;62855;50.718;-2.460;2023-01-08T18:56:01;45.68;72.00
74420;DHT22;62855;50.718;-2.460;2023-01-08T18:59:02;45.68;72.00
74420;DHT22;62855;50.718;-2.460;2023-01-08T19:02:01;45.68;72.00
74420;DHT22;62855;50.718;-2.460;2023-01-08T19:05:00;45.86;72.00
74420;DHT22;62855;50.718;-2.460;2023-01-08T19:08:00;45.86;72.00
74420;DHT22;62855;50.718;-2.460;2023-01-08T19:11:02;46.04;72.00
74420;DHT22;62855;50.718;-2.460;2023-01-08T19:14:00;45.86;72.00
74420;DHT22;62855;50.718;-2.460;2023-01-08T19:17:00;45.68;73.00
74420;DHT22;62855;50.718;-2.460;2023-01-08T19:20:00;45.68;73.00
74420;DHT22;62855;50.718;-2.460;2023-01-08T19:23:00;45.50;74.00
74420;DHT22;62855;50.718;-2.460;2023-01-08T19:26:03;45.32;74.00
74420;DHT22;62855;50.718;-2.460;2023-01-08T19:29:00;45.14;74.00
74420;DHT22;62855;50.718;-2.460;2023-01-08T19:32:00;45.14;74.00
74420;DHT22;62855;50.718;-2.460;2023-01-08T19:35:01;45.14;75.00
74420;DHT22;62855;50.718;-2.460;2023-01-08T19:38:00;45.14;75.00
74420;DHT22;62855;50.718;-2.460;2023-01-08T19:41:00;44.96;76.00
74420;DHT22;62855;50.718;-2.460;2023-01-08T19:44:01;44.96;76.00
74420;DHT22;62855;50.718;-2.460;2023-01-08T19:47:00;44.96;77.00
74420;DHT22;62855;50.718;-2.460;2023-01-08T19:50:00;44.96;77.00
74420;DHT22;62855;50.718;-2.460;2023-01-08T19:53:00;44.96;76.00
74420;DHT22;62855;50.718;-2.460;2023-01-08T19:56:02;44.78;75.00
74420;DHT22;62855;50.718;-2.460;2023-01-08T19:59:00;44.96;75.00
74420;DHT22;62855;50.718;-2.460;2023-01-08T20:02:01;44.96;75.00
74420;DHT22;62855;50.718;-2.460;2023-01-08T20:05:00;44.96;75.00
74420;DHT22;62855;50.718;-2.460;2023-01-08T20:08:01;44.96;76.00
74420;DHT22;62855;50.718;-2.460;2023-01-08T20:11:05;44.96;76.00
74420;DHT22;62855;50.718;-2.460;2023-01-08T20:14:00;44.96;77.00
74420;DHT22;62855;50.718;-2.460;2023-01-08T20:17:01;44.96;78.00
74420;DHT22;62855;50.718;-2.460;2023-01-08T20:20:01;44.96;78.00
74420;DHT22;62855;50.718;-2.460;2023-01-08T20:23:00;44.96;79.00
74420;DHT22;62855;50.718;-2.460;2023-01-08T20:26:01;45.14;79.00
74420;DHT22;62855;50.718;-2.460;2023-01-08T20:29:01;45.32;80.00
74420;DHT22;62855;50.718;-2.460;2023-01-08T20:32:00;45.50;80.00
74420;DHT22;62855;50.718;-2.460;2023-01-08T20:35:00;45.68;80.00
74420;DHT22;62855;50.718;-2.460;2023-01-08T20:38:00;45.68;80.00
74420;DHT22;62855;50.718;-2.460;2023-01-08T20:41:00;45.68;80.00
74420;DHT22;62855;50.718;-2.460;2023-01-08T20:44:01;45.68;80.00
74420;DHT22;62855;50.718;-2.460;2023-01-08T20:47:01;45.50;79.00
74420;DHT22;62855;50.718;-2.460;2023-01-08T20:50:00;45.32;78.00
74420;DHT22;62855;50.718;-2.460;2023-01-08T20:53:01;45.14;77.00
74420;DHT22;62855;50.718;-2.460;2023-01-08T20:56:01;45.14;77.00
74420;DHT22;62855;50.718;-2.460;2023-01-08T20:59:01;44.96;77.00
74420;DHT22;62855;50.718;-2.460;2023-01-08T21:02:01;44.96;77.00
74420;DHT22;62855;50.718;-2.460;2023-01-08T21:05:00;44.96;77.00
74420;DHT22;62855;50.718;-2.460;2023-01-08T21:08:00;44.96;76.00
74420;DHT22;62855;50.718;-2.460;2023-01-08T21:11:02;44.96;76.00
74420;DHT22;62855;50.718;-2.460;2023-01-08T21:14:01;44.96;76.00
74420;DHT22;62855;50.718;-2.460;2023-01-08T21:17:00;44.96;75.00
74420;DHT22;62855;50.718;-2.460;2023-01-08T21:20:01;44.96;75.00
74420;DHT22;62855;50.718;-2.460;2023-01-08T21:23:00;44.96;75.00
74420;DHT22;62855;50.718;-2.460;2023-01-08T21:26:03;44.96;74.00
74420;DHT22;62855;50.718;-2.460;2023-01-08T21:29:01;44.78;74.00
74420;DHT22;62855;50.718;-2.460;2023-01-08T21:32:00;44.78;74.00
74420;DHT22;62855;50.718;-2.460;2023-01-08T21:35:00;44.78;74.00
74420;DHT22;62855;50.718;-2.460;2023-01-08T21:38:00;44.96;74.00
74420;DHT22;62855;50.718;-2.460;2023-01-08T21:41:02;44.78;74.00
74420;DHT22;62855;50.718;-2.460;2023-01-08T21:44:02;44.78;74.00
74420;DHT22;62855;50.718;-2.460;2023-01-08T21:47:01;44.78;74.00
74420;DHT22;62855;50.718;-2.460;2023-01-08T21:50:00;44.60;74.00
74420;DHT22;62855;50.718;-2.460;2023-01-08T21:53:00;44.78;74.00
74420;DHT22;62855;50.718;-2.460;2023-01-08T21:56:01;44.60;74.00
74420;DHT22;62855;50.718;-2.460;2023-01-08T21:59:00;44.60;74.00
74420;DHT22;62855;50.718;-2.460;2023-01-08T22:02:01;44.60;74.00
74420;DHT22;62855;50.718;-2.460;2023-01-08T22:05:00;44.42;74.00
74420;DHT22;62855;50.718;-2.460;2023-01-08T22:08:00;44.42;74.00
74420;DHT22;62855;50.718;-2.460;2023-01-08T22:11:04;44.42;74.00
74420;DHT22;62855;50.718;-2.460;2023-01-08T22:14:01;44.24;80.00
74420;DHT22;62855;50.718;-2.460;2023-01-08T22:17:00;44.24;80.00
74420;DHT22;62855;50.718;-2.460;2023-01-08T22:20:01;44.06;80.00
74420;DHT22;62855;50.718;-2.460;2023-01-08T22:23:00;43.88;80.00
74420;DHT22;62855;50.718;-2.460;2023-01-08T22:26:03;43.88;80.00
74420;DHT22;62855;50.718;-2.460;2023-01-08T22:29:01;43.88;80.00
74420;DHT22;62855;50.718;-2.460;2023-01-08T22:32:01;43.70;81.00
74420;DHT22;62855;50.718;-2.460;2023-01-08T22:35:00;43.70;81.00
74420;DHT22;62855;50.718;-2.460;2023-01-08T22:38:00;43.70;81.00
74420;DHT22;62855;50.718;-2.460;2023-01-08T22:41:00;43.70;81.00
74420;DHT22;62855;50.718;-2.460;2023-01-08T22:44:00;43.70;81.00
74420;DHT22;62855;50.718;-2.460;2023-01-08T22:47:00;43.70;81.00
74420;DHT22;62855;50.718;-2.460;2023-01-08T22:50:00;43.70;81.00
74420;DHT22;62855;50.718;-2.460;2023-01-08T22:53:00;43.52;81.00
74420;DHT22;62855;50.718;-2.460;2023-01-08T22:56:04;43.52;81.00
74420;DHT22;62855;50.718;-2.460;2023-01-08T22:59:01;43.52;81.00
74420;DHT22;62855;50.718;-2.460;2023-01-08T23:02:01;43.52;81.00
74420;DHT22;62855;50.718;-2.460;2023-01-08T23:05:01;43.52;81.00
74420;DHT22;62855;50.718;-2.460;2023-01-08T23:08:00;43.52;81.00
74420;DHT22;62855;50.718;-2.460;2023-01-08T23:11:00;43.52;80.00
74420;DHT22;62855;50.718;-2.460;2023-01-08T23:14:01;43.34;80.00
74420;DHT22;62855;50.718;-2.460;2023-01-08T23:17:00;43.34;80.00
74420;DHT22;62855;50.718;-2.460;2023-01-08T23:20:01;43.52;81.00
74420;DHT22;62855;50.718;-2.460;2023-01-08T23:23:01;43.52;81.00
74420;DHT22;62855;50.718;-2.460;2023-01-08T23:26:03;43.70;81.00
74420;DHT22;62855;50.718;-2.460;2023-01-08T23:29:00;43.70;81.00
74420;DHT22;62855;50.718;-2.460;2023-01-08T23:32:00;43.70;81.00
74420;DHT22;62855;50.718;-2.460;2023-01-08T23:35:01;43.70;81.00
74420;DHT22;62855;50.718;-2.460;2023-01-08T23:38:01;43.70;81.00
74420;DHT22;62855;50.718;-2.460;2023-01-08T23:41:04;43.70;81.00
74420;DHT22;62855;50.718;-2.460;2023-01-08T23:44:03;43.70;81.00
74420;DHT22;62855;50.718;-2.460;2023-01-08T23:47:00;43.52;81.00
74420;DHT22;62855;50.718;-2.460;2023-01-08T23:50:01;43.52;81.00
74420;DHT22;62855;50.718;-2.460;2023-01-08T23:54:01;43.52;81.00
74420;DHT22;62855;50.718;-2.460;2023-01-08T23:57:00;43.52;81.00
